createdAt,value
2022-12-23T00:01:56.501Z,11.27
2022-12-23T00:05:58.243Z,11.37
2022-12-23T00:09:59.928Z,11.45
2022-12-23T00:14:21.931Z,11.52
2022-12-23T00:18:23.694Z,11.58
2022-12-23T00:22:45.022Z,11.60
2022-12-23T00:26:46.465Z,11.65
2022-12-23T00:31:08.367Z,11.67
2022-12-23T00:35:10.104Z,11.68
2022-12-23T00:39:31.358Z,11.65
2022-12-23T00:43:32.741Z,11.66
2022-12-23T00:47:52.865Z,11.68
2022-12-23T00:51:54.730Z,11.74
2022-12-23T00:55:56.119Z,11.70
2022-12-23T00:59:57.578Z,11.69
2022-12-23T01:04:17.618Z,11.69
2022-12-23T01:08:18.950Z,11.64
2022-12-23T01:12:20.560Z,11.63
2022-12-23T01:16:21.973Z,11.56
2022-12-23T01:20:25.023Z,11.52
2022-12-23T01:24:30.741Z,11.51
2022-12-23T01:28:33.255Z,11.45
2022-12-23T01:32:34.557Z,11.35
2022-12-23T01:36:36.161Z,11.27
2022-12-23T01:40:40.743Z,11.19
2022-12-23T01:45:00.646Z,11.08
2022-12-23T01:49:02.257Z,11.00
2022-12-23T01:53:14.593Z,10.95
2022-12-23T01:57:16.168Z,10.90
2022-12-23T02:01:36.515Z,10.87
2022-12-23T02:05:38.465Z,10.84
2022-12-23T02:09:40.568Z,10.82
2022-12-23T02:14:30.996Z,10.76
2022-12-23T02:19:01.637Z,10.71
2022-12-23T02:23:40.479Z,10.65
2022-12-23T02:27:44.725Z,10.61
2022-12-23T02:32:02.967Z,10.56
2022-12-23T02:36:33.769Z,10.54
2022-12-23T02:41:01.696Z,10.45
2022-12-23T02:45:31.071Z,10.39
2022-12-23T02:49:36.603Z,10.39
2022-12-23T02:53:43.448Z,10.32
2022-12-23T02:57:48.232Z,10.26
2022-12-23T03:01:51.949Z,10.26
2022-12-23T03:05:54.390Z,10.28
2022-12-23T03:10:18.556Z,10.32
2022-12-23T03:14:32.051Z,10.31
2022-12-23T03:18:37.514Z,10.28
2022-12-23T03:22:52.276Z,10.31
2022-12-23T03:27:22.191Z,10.33
2022-12-23T03:31:27.386Z,10.28
2022-12-23T03:35:39.431Z,10.26
2022-12-23T03:39:48.025Z,10.23
2022-12-23T03:43:58.024Z,10.23
2022-12-23T03:48:05.287Z,10.23
2022-12-23T03:52:18.916Z,10.23
2022-12-23T03:56:28.888Z,10.27
2022-12-23T04:00:35.750Z,10.29
2022-12-23T04:05:08.701Z,10.32
2022-12-23T04:09:12.692Z,10.37
2022-12-23T04:13:17.354Z,10.36
2022-12-23T04:17:19.291Z,10.40
2022-12-23T04:21:20.950Z,10.42
2022-12-23T04:25:22.268Z,10.41
2022-12-23T04:29:23.672Z,10.42
2022-12-23T04:33:24.984Z,10.47
2022-12-23T04:37:26.357Z,10.50
2022-12-23T04:41:27.659Z,10.56
2022-12-23T04:45:29.046Z,10.55
2022-12-23T04:49:31.032Z,10.57
2022-12-23T04:53:32.439Z,10.61
2022-12-23T04:57:33.867Z,10.63
2022-12-23T05:01:35.355Z,10.62
2022-12-23T05:05:36.756Z,10.63
2022-12-23T05:09:38.087Z,10.61
2022-12-23T05:13:39.399Z,10.65
2022-12-23T05:17:40.776Z,10.66
2022-12-23T05:21:42.351Z,10.64
2022-12-23T05:25:43.884Z,10.64
2022-12-23T05:29:45.199Z,10.59
2022-12-23T05:33:46.600Z,10.54
2022-12-23T05:37:48.048Z,10.57
2022-12-23T05:41:50.214Z,10.55
2022-12-23T05:45:51.960Z,10.60
2022-12-23T05:49:53.331Z,10.58
2022-12-23T05:53:54.646Z,10.53
2022-12-23T05:57:56.135Z,10.48
2022-12-23T06:01:58.636Z,10.43
2022-12-23T06:06:00.026Z,10.43
2022-12-23T06:10:01.484Z,10.40
2022-12-23T06:14:02.807Z,10.38
2022-12-23T06:18:04.464Z,10.39
2022-12-23T06:22:05.993Z,10.42
2022-12-23T06:26:07.354Z,10.40
2022-12-23T06:30:09.331Z,10.41
2022-12-23T06:34:10.632Z,10.38
2022-12-23T06:38:12.495Z,10.31
2022-12-23T06:42:13.955Z,10.29
2022-12-23T06:46:15.366Z,10.27
2022-12-23T06:50:16.735Z,10.23
2022-12-23T06:54:18.088Z,10.16
2022-12-23T06:58:19.401Z,10.10
2022-12-23T07:02:20.953Z,10.00
2022-12-23T07:06:22.440Z,9.96
2022-12-23T07:10:23.786Z,9.88
2022-12-23T07:14:25.067Z,9.79
2022-12-23T07:18:26.486Z,9.72
2022-12-23T07:22:27.882Z,9.68
2022-12-23T07:26:29.257Z,9.68
2022-12-23T07:30:30.579Z,9.65
2022-12-23T07:34:31.941Z,9.62
2022-12-23T07:38:33.590Z,9.61
2022-12-23T07:42:50.401Z,9.68
2022-12-23T07:46:51.730Z,9.79
2022-12-23T07:50:53.217Z,9.84
2022-12-23T07:54:54.601Z,9.90
2022-12-23T07:58:56.070Z,9.98
2022-12-23T08:02:57.604Z,10.05
2022-12-23T08:06:59.004Z,10.16
2022-12-23T08:11:02.765Z,10.28
2022-12-23T08:15:04.938Z,10.29
2022-12-23T08:19:06.259Z,10.34
2022-12-23T08:23:07.894Z,10.39
2022-12-23T08:27:09.954Z,10.42
2022-12-23T08:31:18.856Z,10.44
2022-12-23T08:35:20.497Z,10.48
2022-12-23T08:39:22.016Z,10.54
2022-12-23T08:43:23.432Z,10.61
2022-12-23T08:47:24.810Z,10.64
2022-12-23T08:51:27.076Z,10.68
2022-12-23T08:55:28.418Z,10.74
2022-12-23T08:59:30.261Z,10.76
2022-12-23T09:03:32.024Z,10.77
2022-12-23T09:07:33.510Z,10.76
2022-12-23T09:11:35.415Z,10.80
2022-12-23T09:15:43.574Z,10.80
2022-12-23T09:19:50.461Z,10.83
2022-12-23T09:23:54.019Z,10.86
2022-12-23T09:27:55.698Z,10.92
2022-12-23T09:31:57.091Z,10.97
2022-12-23T09:36:03.497Z,11.00
2022-12-23T09:40:06.271Z,11.05
2022-12-23T09:44:26.243Z,11.07
2022-12-23T09:48:33.171Z,11.14
2022-12-23T09:52:52.943Z,11.22
2022-12-23T09:57:03.549Z,11.31
2022-12-23T10:01:22.730Z,11.38
2022-12-23T10:05:56.076Z,11.46
2022-12-23T10:09:59.580Z,11.52
2022-12-23T10:14:12.049Z,11.58
2022-12-23T10:18:24.209Z,11.63
2022-12-23T10:22:35.709Z,11.67
2022-12-23T10:26:47.192Z,11.70
2022-12-23T10:31:38.654Z,11.77
2022-12-23T10:35:43.979Z,11.78
2022-12-23T10:40:17.906Z,11.77
2022-12-23T10:44:29.603Z,11.80
2022-12-23T10:48:58.918Z,11.79
2022-12-23T10:53:04.566Z,11.78
2022-12-23T10:57:06.943Z,11.76
2022-12-23T11:01:16.061Z,11.76
2022-12-23T11:05:27.403Z,11.80
2022-12-23T11:09:38.245Z,11.85
2022-12-23T11:13:45.275Z,11.85
2022-12-23T11:18:01.920Z,11.85
2022-12-23T11:22:03.232Z,11.81
2022-12-23T11:26:11.865Z,11.79
2022-12-23T11:30:19.583Z,11.78
2022-12-23T11:34:24.845Z,11.77
2022-12-23T11:38:26.154Z,11.79
2022-12-23T11:42:30.488Z,11.79
2022-12-23T11:46:34.409Z,11.80
2022-12-23T11:50:38.753Z,11.83
2022-12-23T11:54:40.338Z,11.88
2022-12-23T11:58:52.353Z,11.87
2022-12-23T12:02:56.612Z,11.90
2022-12-23T12:06:58.394Z,11.93
2022-12-23T12:11:23.143Z,11.96
2022-12-23T12:15:36.871Z,12.02
2022-12-23T12:20:01.522Z,12.05
2022-12-23T12:24:18.650Z,12.13
2022-12-23T12:28:24.023Z,12.11
2022-12-23T12:32:28.310Z,12.15
2022-12-23T12:36:41.831Z,12.22
2022-12-23T12:40:51.116Z,12.26
2022-12-23T12:45:04.522Z,12.28
2022-12-23T12:49:22.826Z,12.32
2022-12-23T12:53:24.880Z,12.34
2022-12-23T12:57:26.828Z,12.34
2022-12-23T13:01:42.718Z,12.39
2022-12-23T13:06:12.237Z,12.44
2022-12-23T13:10:48.551Z,12.51
2022-12-23T13:15:11.857Z,12.55
2022-12-23T13:19:50.955Z,12.62
2022-12-23T13:24:06.076Z,12.64
2022-12-23T13:28:16.641Z,12.68
2022-12-23T13:32:51.716Z,12.75
2022-12-23T13:37:04.831Z,12.75
2022-12-23T13:41:31.354Z,12.78
2022-12-23T13:45:36.619Z,12.81
2022-12-23T13:49:41.314Z,12.86
2022-12-23T13:53:51.901Z,12.91
2022-12-23T13:58:05.834Z,12.95
2022-12-23T14:02:37.929Z,13.01
2022-12-23T14:06:39.250Z,13.07
2022-12-23T14:11:10.521Z,13.08
2022-12-23T14:15:30.667Z,13.06
2022-12-23T14:20:13.541Z,12.98
2022-12-23T14:24:23.979Z,12.92
2022-12-23T14:28:47.306Z,12.91
2022-12-23T14:32:59.611Z,12.89
2022-12-23T14:37:27.172Z,12.86
2022-12-23T14:41:39.630Z,12.83
2022-12-23T14:45:44.267Z,12.81
2022-12-23T14:49:45.593Z,12.82
2022-12-23T14:53:53.638Z,12.84
2022-12-23T14:58:18.637Z,12.81
2022-12-23T15:02:30.171Z,12.82
2022-12-23T15:06:33.474Z,12.80
2022-12-23T15:10:37.368Z,12.77
2022-12-23T15:14:44.378Z,12.74
2022-12-23T15:18:56.906Z,12.74
2022-12-23T15:23:08.239Z,12.70
2022-12-23T15:27:27.387Z,12.71
2022-12-23T15:31:38.873Z,12.69
2022-12-23T15:35:40.375Z,12.71
2022-12-23T15:39:44.835Z,12.67
2022-12-23T15:43:46.319Z,12.69
2022-12-23T15:47:47.648Z,12.69
2022-12-23T15:52:13.828Z,12.65
2022-12-23T15:56:26.465Z,12.64
2022-12-23T16:00:27.763Z,12.60
2022-12-23T16:04:29.583Z,12.60
2022-12-23T16:08:31.442Z,12.60
2022-12-23T16:12:34.775Z,12.61
2022-12-23T16:16:43.326Z,12.57
2022-12-23T16:20:53.709Z,12.57
2022-12-23T16:25:22.933Z,12.58
2022-12-23T16:29:24.366Z,12.61
2022-12-23T16:33:43.655Z,12.62
2022-12-23T16:37:50.912Z,12.61
2022-12-23T16:41:52.461Z,12.61
2022-12-23T16:45:56.801Z,12.55
2022-12-23T16:49:58.241Z,12.53
2022-12-23T16:54:01.234Z,12.52
2022-12-23T16:58:02.680Z,12.50
2022-12-23T17:02:04.278Z,12.46
2022-12-23T17:06:05.744Z,12.39
2022-12-23T17:10:08.281Z,12.40
2022-12-23T17:14:23.419Z,12.37
2022-12-23T17:18:24.877Z,12.36
2022-12-23T17:22:26.555Z,12.34
2022-12-23T17:26:27.886Z,12.35
2022-12-23T17:30:29.686Z,12.35
2022-12-23T17:34:31.370Z,12.41
2022-12-23T17:38:32.731Z,12.38
2022-12-23T17:42:34.274Z,12.37
2022-12-23T17:46:35.560Z,12.33
2022-12-23T17:50:37.689Z,12.33
2022-12-23T17:54:39.022Z,12.32
2022-12-23T17:58:41.241Z,12.33
2022-12-23T18:02:44.153Z,12.29
2022-12-23T18:06:45.589Z,12.23
2022-12-23T18:10:47.094Z,12.19
2022-12-23T18:14:48.636Z,12.16
2022-12-23T18:18:49.994Z,12.16
2022-12-23T18:22:53.945Z,12.15
2022-12-23T18:26:55.247Z,12.14
2022-12-23T18:30:57.339Z,12.06
2022-12-23T18:34:58.918Z,12.04
2022-12-23T18:39:00.556Z,12.04
2022-12-23T18:43:02.172Z,12.07
2022-12-23T18:47:03.553Z,12.16
2022-12-23T18:51:05.135Z,12.16
2022-12-23T18:55:07.825Z,12.07
2022-12-23T18:59:16.989Z,11.94
2022-12-23T19:03:30.116Z,11.79
2022-12-23T19:07:31.449Z,11.65
2022-12-23T19:11:33.593Z,11.53
2022-12-23T19:15:35.030Z,11.32
2022-12-23T19:19:36.662Z,11.29
2022-12-23T19:23:41.602Z,11.30
2022-12-23T19:27:44.005Z,11.18
2022-12-23T19:31:45.332Z,11.12
2022-12-23T19:35:46.675Z,11.06
2022-12-23T19:39:49.385Z,11.02
2022-12-23T19:43:51.024Z,10.97
2022-12-23T19:47:53.317Z,10.89
2022-12-23T19:51:54.700Z,10.81
2022-12-23T19:55:59.164Z,10.86
2022-12-23T20:00:04.145Z,10.84
2022-12-23T20:04:05.464Z,10.87
2022-12-23T20:08:06.851Z,10.87
2022-12-23T20:12:08.691Z,10.87
2022-12-23T20:16:14.057Z,10.87
2022-12-23T20:20:15.567Z,10.86
2022-12-23T20:24:17.560Z,10.88
2022-12-23T20:28:19.406Z,10.88
2022-12-23T20:32:20.801Z,10.88
2022-12-23T20:36:24.636Z,10.84
2022-12-23T20:40:26.004Z,10.79
2022-12-23T20:44:36.641Z,10.74
2022-12-23T20:48:45.082Z,10.68
2022-12-23T20:52:46.947Z,10.62
2022-12-23T20:56:48.446Z,10.59
2022-12-23T21:00:50.274Z,10.58
2022-12-23T21:04:51.718Z,10.57
2022-12-23T21:08:55.575Z,10.65
2022-12-23T21:12:56.954Z,10.70
2022-12-23T21:16:58.285Z,10.73
2022-12-23T21:21:01.746Z,10.76
2022-12-23T21:25:03.343Z,10.71
2022-12-23T21:29:07.267Z,10.68
2022-12-23T21:33:08.646Z,10.71
2022-12-23T21:37:10.565Z,10.76
2022-12-23T21:41:15.099Z,10.82
2022-12-23T21:45:17.073Z,10.88
2022-12-23T21:49:20.581Z,10.89
2022-12-23T21:53:22.000Z,10.88
2022-12-23T21:57:23.422Z,10.82
2022-12-23T22:01:25.499Z,10.77
2022-12-23T22:05:27.055Z,10.79
2022-12-23T22:09:28.553Z,10.75
2022-12-23T22:13:29.885Z,10.76
2022-12-23T22:17:31.215Z,10.72
2022-12-23T22:21:34.108Z,10.71
2022-12-23T22:25:35.478Z,10.69
2022-12-23T22:29:36.837Z,10.66
2022-12-23T22:33:38.615Z,10.64
2022-12-23T22:37:39.999Z,10.60
2022-12-23T22:41:41.335Z,10.59
2022-12-23T22:45:42.668Z,10.59
2022-12-23T22:49:44.199Z,10.55
2022-12-23T22:53:46.410Z,10.57
2022-12-23T22:57:47.848Z,10.56
2022-12-23T23:01:50.477Z,10.53
2022-12-23T23:06:07.367Z,10.56
2022-12-23T23:10:09.351Z,10.52
2022-12-23T23:14:12.076Z,10.55
2022-12-23T23:18:13.457Z,10.56
2022-12-23T23:22:16.093Z,10.55
2022-12-23T23:26:17.910Z,10.53
2022-12-23T23:30:19.595Z,10.46
2022-12-23T23:34:20.999Z,10.45
2022-12-23T23:38:23.669Z,10.45
2022-12-23T23:42:24.948Z,10.38
2022-12-23T23:46:26.497Z,10.38
2022-12-23T23:50:28.015Z,10.37
2022-12-23T23:54:29.540Z,10.33
2022-12-23T23:58:31.182Z,10.33
